Time,TemperatureF,DewpointF,PressureIn,WindDirection,WindDirectionDegrees,WindSpeedMPH,WindSpeedGustMPH,Humidity,HourlyPrecipIn,Conditions,Clouds,dailyrainin,SolarRadiationWatts/m^2,SoftwareType,DateUTC
2013-09-27 00:06:00,54.0,53.0,30.38,ESE,108,1.0,2.0,98,0.00,,,0.00,0.000000,,2013-09-27 04:06:00,
2013-09-27 00:14:00,54.0,53.0,30.38,ESE,108,1.0,2.0,98,0.00,,,0.00,0.000000,,2013-09-27 04:14:00,
2013-09-27 00:44:00,53.0,52.0,30.39,South,184,1.0,2.0,98,0.00,,,0.00,0.000000,,2013-09-27 04:44:00,
2013-09-27 00:54:00,53.0,52.0,30.39,South,184,1.0,2.0,98,0.00,,,0.00,0.000000,,2013-09-27 04:54:00,
2013-09-27 01:04:00,53.0,52.0,30.39,South,184,1.0,2.0,98,0.00,,,0.00,0.000000,,2013-09-27 05:04:00,
2013-09-27 01:13:00,53.0,52.0,30.39,South,184,1.0,2.0,98,0.00,,,0.00,0.000000,,2013-09-27 05:13:00,
2013-09-27 01:43:00,50.0,49.0,30.40,WNW,288,1.0,3.0,98,0.00,,,0.00,0.000000,,2013-09-27 05:43:00,
2013-09-27 01:52:00,50.0,49.0,30.40,WNW,288,1.0,3.0,98,0.00,,,0.00,0.000000,,2013-09-27 05:52:00,
2013-09-27 02:02:00,50.0,49.0,30.40,WNW,288,1.0,3.0,98,0.00,,,0.00,0.000000,,2013-09-27 06:02:00,
2013-09-27 02:12:00,50.0,49.0,30.40,WNW,288,1.0,3.0,98,0.00,,,0.00,0.000000,,2013-09-27 06:12:00,
2013-09-27 02:43:00,51.0,50.0,30.41,West,272,0.0,2.0,98,0.00,,,0.00,0.000000,,2013-09-27 06:43:00,
2013-09-27 02:52:00,51.0,50.0,30.41,West,272,0.0,2.0,98,0.00,,,0.00,0.000000,,2013-09-27 06:52:00,
2013-09-27 03:02:00,51.0,50.0,30.41,West,272,0.0,2.0,98,0.00,,,0.00,0.000000,,2013-09-27 07:02:00,
2013-09-27 03:12:00,51.0,50.0,30.41,West,272,0.0,2.0,98,0.00,,,0.00,0.000000,,2013-09-27 07:12:00,
2013-09-27 03:44:00,49.0,48.0,30.40,ESE,115,1.0,2.0,98,0.00,,,0.00,0.000000,,2013-09-27 07:44:00,
2013-09-27 03:53:00,49.0,48.0,30.40,ESE,115,1.0,2.0,98,0.00,,,0.00,0.000000,,2013-09-27 07:53:00,
2013-09-27 04:02:00,49.0,48.0,30.40,ESE,115,1.0,2.0,98,0.00,,,0.00,0.000000,,2013-09-27 08:02:00,
2013-09-27 04:12:00,49.0,48.0,30.40,ESE,115,1.0,2.0,98,0.00,,,0.00,0.000000,,2013-09-27 08:12:00,
2013-09-27 04:42:00,49.0,49.0,30.41,NE,38,0.0,2.0,99,0.00,,,0.00,0.000000,,2013-09-27 08:42:00,
2013-09-27 04:52:00,49.0,49.0,30.41,NE,38,0.0,2.0,99,0.00,,,0.00,0.000000,,2013-09-27 08:52:00,
2013-09-27 05:02:00,49.0,49.0,30.41,NE,38,0.0,2.0,99,0.00,,,0.00,0.000000,,2013-09-27 09:02:00,
2013-09-27 05:12:00,49.0,49.0,30.41,NE,38,0.0,2.0,99,0.00,,,0.00,0.000000,,2013-09-27 09:12:00,
2013-09-27 06:13:00,46.0,46.0,30.43,North,0,1.0,2.0,99,0.00,,,0.00,0.000000,,2013-09-27 10:13:00,
2013-09-27 07:12:00,45.0,45.0,30.44,SE,133,1.0,2.0,99,0.00,,,0.00,0.000000,,2013-09-27 11:12:00,
2013-09-27 07:43:00,45.0,45.0,30.46,North,7,1.0,2.0,99,0.00,,,0.00,0.000000,,2013-09-27 11:43:00,
2013-09-27 07:52:00,45.0,45.0,30.46,North,7,1.0,2.0,99,0.00,,,0.00,0.000000,,2013-09-27 11:52:00,
2013-09-27 08:02:00,45.0,45.0,30.46,North,7,1.0,2.0,99,0.00,,,0.00,0.000000,,2013-09-27 12:02:00,
2013-09-27 08:12:00,45.0,45.0,30.46,North,7,1.0,2.0,99,0.00,,,0.00,0.000000,,2013-09-27 12:12:00,
2013-09-27 08:42:00,48.0,48.0,30.48,SE,126,0.0,2.0,99,0.00,,,0.00,11.000000,,2013-09-27 12:42:00,
2013-09-27 08:52:00,48.0,48.0,30.48,SE,126,0.0,2.0,99,0.00,,,0.00,11.000000,,2013-09-27 12:52:00,
2013-09-27 09:02:00,48.0,48.0,30.48,SE,126,0.0,2.0,99,0.00,,,0.00,11.000000,,2013-09-27 13:02:00,
2013-09-27 09:11:00,48.0,48.0,30.48,SE,126,0.0,2.0,99,0.00,,,0.00,11.000000,,2013-09-27 13:11:00,
2013-09-27 09:42:00,58.0,58.0,30.48,West,269,1.0,3.0,99,0.00,,,0.00,154.000000,,2013-09-27 13:42:00,
2013-09-27 09:53:00,58.0,58.0,30.48,West,269,1.0,3.0,99,0.00,,,0.00,154.000000,,2013-09-27 13:53:00,
2013-09-27 10:02:00,58.0,58.0,30.48,West,269,1.0,3.0,99,0.00,,,0.00,154.000000,,2013-09-27 14:02:00,
2013-09-27 10:11:00,58.0,58.0,30.48,West,269,1.0,3.0,99,0.00,,,0.00,154.000000,,2013-09-27 14:11:00,
2013-09-27 11:11:00,69.0,60.0,30.48,North,11,1.0,3.0,72,0.00,,,0.00,418.000000,,2013-09-27 15:11:00,
2013-09-27 13:13:00,78.0,54.0,30.46,NW,307,2.0,8.0,44,-99.99,,,0.00,765.000000,,2013-09-27 17:13:00,
2013-09-27 13:43:00,78.0,55.0,30.45,SE,139,3.0,8.0,45,0.00,,,0.00,852.000000,,2013-09-27 17:43:00,
2013-09-27 13:52:00,78.0,55.0,30.45,SE,139,3.0,8.0,45,0.00,,,0.00,852.000000,,2013-09-27 17:52:00,
2013-09-27 14:02:00,78.0,55.0,30.45,SE,139,3.0,8.0,45,0.00,,,0.00,852.000000,,2013-09-27 18:02:00,
2013-09-27 14:13:00,78.0,55.0,30.45,SE,139,3.0,8.0,45,0.00,,,0.00,852.000000,,2013-09-27 18:13:00,
2013-09-27 14:43:00,78.0,55.0,30.43,NNW,348,3.0,10.0,45,0.00,,,0.00,878.000000,,2013-09-27 18:43:00,
2013-09-27 14:52:00,78.0,55.0,30.43,NNW,348,3.0,10.0,45,0.00,,,0.00,878.000000,,2013-09-27 18:52:00,
2013-09-27 15:02:00,78.0,55.0,30.43,NNW,348,3.0,10.0,45,0.00,,,0.00,878.000000,,2013-09-27 19:02:00,
2013-09-27 15:12:00,78.0,55.0,30.43,NNW,348,3.0,10.0,45,0.00,,,0.00,878.000000,,2013-09-27 19:12:00,
2013-09-27 15:43:00,78.0,55.0,30.41,SE,138,3.0,10.0,45,0.00,,,0.00,750.000000,,2013-09-27 19:43:00,
2013-09-27 15:53:00,78.0,55.0,30.41,SE,138,3.0,10.0,45,0.00,,,0.00,750.000000,,2013-09-27 19:53:00,
2013-09-27 16:03:00,78.0,55.0,30.41,SE,138,3.0,10.0,45,0.00,,,0.00,750.000000,,2013-09-27 20:03:00,
2013-09-27 16:12:00,78.0,55.0,30.41,SE,138,3.0,10.0,45,0.00,,,0.00,750.000000,,2013-09-27 20:12:00,
2013-09-27 16:43:00,79.0,55.0,30.41,WSW,244,4.0,12.0,44,0.00,,,0.00,667.000000,,2013-09-27 20:43:00,
2013-09-27 16:52:00,79.0,55.0,30.41,WSW,244,4.0,12.0,44,0.00,,,0.00,667.000000,,2013-09-27 20:52:00,
2013-09-27 17:02:00,79.0,55.0,30.41,WSW,244,4.0,12.0,44,0.00,,,0.00,667.000000,,2013-09-27 21:02:00,
2013-09-27 17:12:00,79.0,55.0,30.41,WSW,244,4.0,12.0,44,0.00,,,0.00,667.000000,,2013-09-27 21:12:00,
2013-09-27 17:44:00,80.0,59.0,30.42,NNW,334,2.0,10.0,49,0.00,,,0.00,541.000000,,2013-09-27 21:44:00,
2013-09-27 17:54:00,80.0,59.0,30.42,NNW,334,2.0,10.0,49,0.00,,,0.00,541.000000,,2013-09-27 21:54:00,
2013-09-27 18:04:00,80.0,59.0,30.42,NNW,334,2.0,10.0,49,0.00,,,0.00,541.000000,,2013-09-27 22:04:00,
2013-09-27 18:14:00,80.0,59.0,30.42,NNW,334,2.0,10.0,49,0.00,,,0.00,541.000000,,2013-09-27 22:14:00,
2013-09-27 18:43:00,73.0,62.0,30.43,ENE,58,1.0,10.0,69,-99.99,,,0.00,298.000000,,2013-09-27 22:43:00,
2013-09-27 18:54:00,73.0,62.0,30.43,ENE,58,1.0,10.0,69,-99.99,,,0.00,298.000000,,2013-09-27 22:54:00,
2013-09-27 19:03:00,73.0,62.0,30.43,ENE,58,1.0,10.0,69,-99.99,,,0.00,298.000000,,2013-09-27 23:03:00,
2013-09-27 19:12:00,73.0,62.0,30.43,ENE,58,1.0,10.0,69,-99.99,,,0.00,298.000000,,2013-09-27 23:12:00,